SWA1301 KSJC-KLAS
Flight info
| Callsign | SWA1301 |
|---|---|
| Flight time | 1h 5m |
| Altitude | 33000 |
| Route | SPTNS1 TECKY NTELL Q174 FLCHR COKTL4 |
| Aircraft | B737/M-SDE2E3GIJ4RWZ/LB1D1 |
Departure
| Time | 2026-05-07 19:16 |
|---|---|
| Airport | Norman Y. Mineta San Jose International Airport (KSJC) |
Arrival
| Time | 2026-05-07 20:21 |
|---|---|
| Airport | Harry Reid International Airport (KLAS) |
| Time | Latitude | Longitude | Altitude | Speed | Heading |
|---|---|---|---|---|---|
| 2026-05-07 18:30 | 37.36463 | -121.92499 | 60 ft | 0 kts | 48° |
| 2026-05-07 19:08 | 37.36463 | -121.92500 | 60 ft | 1 kts | 49° |
| 2026-05-07 19:08 | 37.36446 | -121.92523 | 55 ft | 4 kts | 49° |
| 2026-05-07 19:08 | 37.36431 | -121.92546 | 56 ft | 2 kts | 49° |
| 2026-05-07 19:09 | 37.36421 | -121.92570 | 55 ft | 4 kts | 107° |
| 2026-05-07 19:09 | 37.36435 | -121.92593 | 57 ft | 4 kts | 139° |
| 2026-05-07 19:09 | 37.36441 | -121.92599 | 59 ft | 1 kts | 139° |
| 2026-05-07 19:11 | 37.36430 | -121.92588 | 55 ft | 5 kts | 139° |
| 2026-05-07 19:11 | 37.36382 | -121.92536 | 61 ft | 13 kts | 139° |
| 2026-05-07 19:12 | 37.36299 | -121.92443 | 52 ft | 19 kts | 137° |
| 2026-05-07 19:12 | 37.36191 | -121.92326 | 56 ft | 21 kts | 140° |
| 2026-05-07 19:12 | 37.36083 | -121.92209 | 58 ft | 20 kts | 137° |
| 2026-05-07 19:12 | 37.35979 | -121.92092 | 55 ft | 20 kts | 140° |
| 2026-05-07 19:13 | 37.35877 | -121.91982 | 55 ft | 19 kts | 140° |
| 2026-05-07 19:13 | 37.35777 | -121.91879 | 61 ft | 18 kts | 133° |
| 2026-05-07 19:13 | 37.35687 | -121.91769 | 60 ft | 18 kts | 139° |
| 2026-05-07 19:13 | 37.35596 | -121.91667 | 58 ft | 17 kts | 139° |
| 2026-05-07 19:14 | 37.35508 | -121.91571 | 54 ft | 17 kts | 141° |
| 2026-05-07 19:14 | 37.35419 | -121.91483 | 54 ft | 16 kts | 142° |
| 2026-05-07 19:14 | 37.35327 | -121.91420 | 57 ft | 15 kts | 189° |
| 2026-05-07 19:14 | 37.35257 | -121.91510 | 58 ft | 10 kts | 238° |
| 2026-05-07 19:15 | 37.35270 | -121.91573 | 59 ft | 8 kts | 320° |
| 2026-05-07 19:15 | 37.35379 | -121.91694 | 61 ft | 50 kts | 319° |
| 2026-05-07 19:15 | 37.35838 | -121.92197 | 58 ft | 122 kts | 319° |
| 2026-05-07 19:15 | 37.36602 | -121.93061 | 218 ft | 164 kts | 317° |
| 2026-05-07 19:16 | 37.37465 | -121.94025 | 970 ft | 165 kts | 317° |
| 2026-05-07 19:16 | 37.38293 | -121.95016 | 1949 ft | 163 kts | 313° |
| 2026-05-07 19:16 | 37.39112 | -121.96042 | 2733 ft | 174 kts | 317° |
| 2026-05-07 19:16 | 37.40061 | -121.97067 | 3497 ft | 181 kts | 319° |
| 2026-05-07 19:17 | 37.41103 | -121.98012 | 4281 ft | 193 kts | 334° |
| 2026-05-07 19:17 | 37.42499 | -121.98286 | 4802 ft | 217 kts | 9° |
| 2026-05-07 19:17 | 37.43903 | -121.97425 | 5195 ft | 243 kts | 40° |
| 2026-05-07 19:17 | 37.45004 | -121.95706 | 4859 ft | 261 kts | 62° |
| 2026-05-07 19:18 | 37.45538 | -121.93584 | 4740 ft | 252 kts | 86° |
| 2026-05-07 19:18 | 37.45230 | -121.91463 | 4586 ft | 243 kts | 117° |
| 2026-05-07 19:18 | 37.44286 | -121.89801 | 4643 ft | 230 kts | 138° |
| 2026-05-07 19:18 | 37.42967 | -121.88632 | 4701 ft | 238 kts | 154° |
| 2026-05-07 19:19 | 37.41460 | -121.87726 | 4814 ft | 243 kts | 158° |
| 2026-05-07 19:19 | 37.39955 | -121.86730 | 4882 ft | 245 kts | 148° |
| 2026-05-07 19:19 | 37.38520 | -121.85438 | 4980 ft | 267 kts | 142° |
| 2026-05-07 19:19 | 37.37069 | -121.83887 | 4995 ft | 277 kts | 139° |
| 2026-05-07 19:20 | 37.35653 | -121.82229 | 5004 ft | 279 kts | 136° |
| 2026-05-07 19:20 | 37.34264 | -121.80531 | 4994 ft | 278 kts | 136° |
| 2026-05-07 19:20 | 37.32884 | -121.78834 | 4996 ft | 277 kts | 136° |
| 2026-05-07 19:20 | 37.31474 | -121.77175 | 5073 ft | 280 kts | 138° |
| 2026-05-07 19:21 | 37.30002 | -121.75513 | 5839 ft | 285 kts | 139° |
| 2026-05-07 19:21 | 37.28535 | -121.73865 | 7003 ft | 282 kts | 139° |
| 2026-05-07 19:21 | 37.27068 | -121.72211 | 8064 ft | 284 kts | 139° |
| 2026-05-07 19:21 | 37.25588 | -121.70543 | 9047 ft | 288 kts | 139° |
| 2026-05-07 19:22 | 37.24090 | -121.68852 | 10023 ft | 291 kts | 140° |
| 2026-05-07 19:22 | 37.22574 | -121.67141 | 10904 ft | 295 kts | 139° |
| 2026-05-07 19:22 | 37.21057 | -121.65429 | 11757 ft | 299 kts | 139° |
| 2026-05-07 19:22 | 37.19498 | -121.63669 | 12631 ft | 304 kts | 139° |
| 2026-05-07 19:23 | 37.17913 | -121.61879 | 13512 ft | 309 kts | 138° |
| 2026-05-07 19:23 | 37.16307 | -121.60065 | 14351 ft | 313 kts | 138° |
| 2026-05-07 19:23 | 37.14676 | -121.58224 | 15189 ft | 317 kts | 138° |
| 2026-05-07 19:23 | 37.13024 | -121.56359 | 16026 ft | 322 kts | 137° |
| 2026-05-07 19:24 | 37.11340 | -121.54461 | 16821 ft | 328 kts | 137° |
| 2026-05-07 19:24 | 37.09631 | -121.52537 | 17644 ft | 334 kts | 137° |
| 2026-05-07 19:24 | 37.07884 | -121.50554 | 18287 ft | 346 kts | 134° |
| 2026-05-07 19:24 | 37.06482 | -121.48001 | 18437 ft | 369 kts | 111° |
| 2026-05-07 19:25 | 37.05867 | -121.44806 | 18655 ft | 387 kts | 97° |
| 2026-05-07 19:25 | 37.05523 | -121.41403 | 19129 ft | 397 kts | 95° |
| 2026-05-07 19:25 | 37.05223 | -121.37940 | 19808 ft | 400 kts | 95° |
| 2026-05-07 19:25 | 37.04929 | -121.34471 | 20531 ft | 403 kts | 95° |
| 2026-05-07 19:26 | 37.04623 | -121.30968 | 21227 ft | 406 kts | 95° |
| 2026-05-07 19:26 | 37.04303 | -121.27431 | 21911 ft | 410 kts | 96° |
| 2026-05-07 19:26 | 37.03969 | -121.23877 | 22544 ft | 414 kts | 96° |
| 2026-05-07 19:26 | 37.03624 | -121.20285 | 23166 ft | 418 kts | 96° |
| 2026-05-07 19:27 | 37.03271 | -121.16664 | 23787 ft | 421 kts | 96° |
| 2026-05-07 19:27 | 37.02912 | -121.13015 | 24324 ft | 424 kts | 96° |
| 2026-05-07 19:27 | 37.02548 | -121.09338 | 24816 ft | 427 kts | 96° |
| 2026-05-07 19:27 | 37.02179 | -121.05627 | 25347 ft | 430 kts | 96° |
| 2026-05-07 19:28 | 37.01806 | -121.01897 | 25840 ft | 433 kts | 97° |
| 2026-05-07 19:28 | 37.01431 | -120.98145 | 26330 ft | 437 kts | 96° |
| 2026-05-07 19:28 | 37.01057 | -120.94405 | 26810 ft | 439 kts | 97° |
| 2026-05-07 19:28 | 37.00673 | -120.90589 | 27254 ft | 443 kts | 97° |
| 2026-05-07 19:29 | 37.00284 | -120.86741 | 27690 ft | 446 kts | 97° |
| 2026-05-07 19:29 | 36.99894 | -120.82874 | 28143 ft | 449 kts | 97° |
| 2026-05-07 19:29 | 36.99633 | -120.80307 | 28433 ft | 451 kts | 97° |
| 2026-05-07 19:29 | 36.99235 | -120.76393 | 28865 ft | 454 kts | 97° |
| 2026-05-07 19:30 | 36.98833 | -120.72458 | 29278 ft | 457 kts | 97° |
| 2026-05-07 19:30 | 36.98428 | -120.68499 | 29706 ft | 460 kts | 97° |
| 2026-05-07 19:30 | 36.98021 | -120.64531 | 30260 ft | 459 kts | 97° |
| 2026-05-07 19:30 | 36.97614 | -120.60593 | 30841 ft | 456 kts | 97° |
| 2026-05-07 19:31 | 36.97209 | -120.56673 | 31399 ft | 453 kts | 97° |
| 2026-05-07 19:31 | 36.96803 | -120.52772 | 31886 ft | 452 kts | 97° |
| 2026-05-07 19:31 | 36.96397 | -120.48867 | 32348 ft | 452 kts | 97° |
| 2026-05-07 19:31 | 36.95991 | -120.44976 | 32823 ft | 451 kts | 97° |
| 2026-05-07 19:32 | 36.95584 | -120.41095 | 33116 ft | 451 kts | 97° |
| 2026-05-07 19:32 | 36.95174 | -120.37195 | 33105 ft | 452 kts | 97° |
| 2026-05-07 19:32 | 36.94354 | -120.29431 | 33110 ft | 449 kts | 97° |
| 2026-05-07 19:33 | 36.93534 | -120.21722 | 33127 ft | 447 kts | 97° |
| 2026-05-07 19:33 | 36.92708 | -120.14003 | 33122 ft | 448 kts | 97° |
| 2026-05-07 19:34 | 36.91878 | -120.06283 | 33120 ft | 448 kts | 97° |
| 2026-05-07 19:34 | 36.91042 | -119.98552 | 33116 ft | 449 kts | 97° |
| 2026-05-07 19:35 | 36.90531 | -119.90799 | 33108 ft | 448 kts | 85° |
| 2026-05-07 19:35 | 36.91776 | -119.83209 | 33106 ft | 447 kts | 68° |
| 2026-05-07 19:36 | 36.94131 | -119.76032 | 33102 ft | 447 kts | 66° |
| 2026-05-07 19:36 | 36.96560 | -119.68853 | 33104 ft | 448 kts | 66° |
| 2026-05-07 19:37 | 36.98932 | -119.61692 | 33101 ft | 449 kts | 66° |
| 2026-05-07 19:37 | 37.01291 | -119.54460 | 33106 ft | 449 kts | 66° |
| 2026-05-07 19:38 | 37.03639 | -119.47217 | 33100 ft | 449 kts | 66° |
| 2026-05-07 19:38 | 37.05981 | -119.39978 | 33094 ft | 449 kts | 66° |
| 2026-05-07 19:39 | 37.08320 | -119.32732 | 33107 ft | 449 kts | 66° |
| 2026-05-07 19:39 | 37.10654 | -119.25486 | 33108 ft | 449 kts | 66° |
| 2026-05-07 19:40 | 37.12983 | -119.18239 | 33119 ft | 448 kts | 66° |
| 2026-05-07 19:40 | 37.15304 | -119.10996 | 33121 ft | 447 kts | 66° |
| 2026-05-07 19:41 | 37.17614 | -119.03767 | 33129 ft | 446 kts | 66° |
| 2026-05-07 19:41 | 37.19918 | -118.96544 | 33128 ft | 446 kts | 66° |
| 2026-05-07 19:42 | 37.22216 | -118.89325 | 33129 ft | 445 kts | 66° |
| 2026-05-07 19:42 | 37.24491 | -118.82149 | 33110 ft | 445 kts | 66° |
| 2026-05-07 19:43 | 37.26778 | -118.74919 | 33096 ft | 445 kts | 67° |
| 2026-05-07 19:43 | 37.28185 | -118.67346 | 33117 ft | 448 kts | 82° |
| 2026-05-07 19:44 | 37.28744 | -118.59547 | 33121 ft | 449 kts | 83° |
| 2026-05-07 19:44 | 37.29278 | -118.51706 | 33129 ft | 450 kts | 83° |
| 2026-05-07 19:45 | 37.29846 | -118.43896 | 33139 ft | 450 kts | 83° |
| 2026-05-07 19:45 | 37.30430 | -118.36070 | 33139 ft | 450 kts | 83° |
| 2026-05-07 19:46 | 37.31013 | -118.28246 | 33135 ft | 450 kts | 83° |
| 2026-05-07 19:46 | 37.31590 | -118.20420 | 33119 ft | 450 kts | 83° |
| 2026-05-07 19:47 | 37.32161 | -118.12594 | 33075 ft | 450 kts | 83° |
| 2026-05-07 19:47 | 37.32726 | -118.04782 | 33060 ft | 449 kts | 83° |
| 2026-05-07 19:48 | 37.33286 | -117.96956 | 33033 ft | 449 kts | 83° |
| 2026-05-07 19:48 | 37.33837 | -117.89190 | 33002 ft | 449 kts | 83° |
| 2026-05-07 19:49 | 37.34386 | -117.81371 | 33004 ft | 449 kts | 83° |
| 2026-05-07 19:49 | 37.34931 | -117.73555 | 33003 ft | 449 kts | 83° |
| 2026-05-07 19:50 | 37.35469 | -117.65754 | 33007 ft | 448 kts | 83° |
| 2026-05-07 19:50 | 37.36003 | -117.57944 | 33010 ft | 447 kts | 83° |
| 2026-05-07 19:51 | 37.36530 | -117.50148 | 33008 ft | 447 kts | 83° |
| 2026-05-07 19:51 | 37.37053 | -117.42352 | 33015 ft | 447 kts | 83° |
| 2026-05-07 19:52 | 37.37572 | -117.34551 | 32480 ft | 452 kts | 83° |
| 2026-05-07 19:52 | 37.37718 | -117.30657 | 31753 ft | 454 kts | 91° |
| 2026-05-07 19:52 | 37.37116 | -117.26757 | 30952 ft | 459 kts | 108° |
| 2026-05-07 19:53 | 37.35738 | -117.23181 | 30764 ft | 449 kts | 121° |
| 2026-05-07 19:53 | 37.33781 | -117.20153 | 30520 ft | 448 kts | 130° |
| 2026-05-07 19:53 | 37.31646 | -117.17243 | 30289 ft | 458 kts | 131° |
| 2026-05-07 19:53 | 37.29461 | -117.14297 | 30004 ft | 462 kts | 131° |
| 2026-05-07 19:54 | 37.27291 | -117.11352 | 29695 ft | 458 kts | 130° |
| 2026-05-07 19:54 | 37.25151 | -117.08415 | 29433 ft | 453 kts | 130° |
| 2026-05-07 19:54 | 37.23040 | -117.05491 | 29175 ft | 450 kts | 130° |
| 2026-05-07 19:54 | 37.20950 | -117.02583 | 28923 ft | 447 kts | 130° |
| 2026-05-07 19:55 | 37.18871 | -116.99687 | 28684 ft | 445 kts | 130° |
| 2026-05-07 19:55 | 37.16799 | -116.96800 | 28441 ft | 445 kts | 130° |
| 2026-05-07 19:55 | 37.14733 | -116.93927 | 28190 ft | 444 kts | 130° |
| 2026-05-07 19:55 | 37.12667 | -116.91058 | 27958 ft | 444 kts | 130° |
| 2026-05-07 19:56 | 37.10594 | -116.88195 | 27721 ft | 443 kts | 131° |
| 2026-05-07 19:56 | 37.08264 | -116.85649 | 27459 ft | 446 kts | 142° |
| 2026-05-07 19:56 | 37.05708 | -116.83427 | 27245 ft | 446 kts | 144° |
| 2026-05-07 19:56 | 37.03116 | -116.81284 | 26988 ft | 446 kts | 145° |
| 2026-05-07 19:57 | 37.00520 | -116.79154 | 26741 ft | 446 kts | 145° |
| 2026-05-07 19:57 | 36.97940 | -116.77015 | 26497 ft | 444 kts | 144° |
| 2026-05-07 19:57 | 36.95381 | -116.74865 | 26244 ft | 442 kts | 144° |
| 2026-05-07 19:57 | 36.92841 | -116.72710 | 25994 ft | 440 kts | 144° |
| 2026-05-07 19:58 | 36.90322 | -116.70560 | 25766 ft | 438 kts | 144° |
| 2026-05-07 19:58 | 36.87811 | -116.68415 | 25534 ft | 436 kts | 144° |
| 2026-05-07 19:58 | 36.85314 | -116.66279 | 25281 ft | 434 kts | 144° |
| 2026-05-07 19:58 | 36.82858 | -116.64182 | 25040 ft | 432 kts | 144° |
| 2026-05-07 19:59 | 36.80379 | -116.62067 | 24825 ft | 430 kts | 144° |
| 2026-05-07 19:59 | 36.77907 | -116.59961 | 24574 ft | 429 kts | 144° |
| 2026-05-07 19:59 | 36.75411 | -116.57837 | 24346 ft | 428 kts | 144° |
| 2026-05-07 19:59 | 36.72988 | -116.55777 | 24112 ft | 427 kts | 144° |
| 2026-05-07 20:00 | 36.70535 | -116.53692 | 23884 ft | 426 kts | 144° |
| 2026-05-07 20:00 | 36.68088 | -116.51613 | 23625 ft | 426 kts | 144° |
| 2026-05-07 20:00 | 36.65654 | -116.49539 | 23373 ft | 424 kts | 142° |
| 2026-05-07 20:00 | 36.63475 | -116.47098 | 23107 ft | 419 kts | 130° |
| 2026-05-07 20:01 | 36.61565 | -116.44395 | 22890 ft | 415 kts | 128° |
| 2026-05-07 20:01 | 36.59702 | -116.41655 | 22648 ft | 414 kts | 128° |
| 2026-05-07 20:01 | 36.57845 | -116.38927 | 22421 ft | 412 kts | 128° |
| 2026-05-07 20:01 | 36.55979 | -116.36226 | 22192 ft | 411 kts | 129° |
| 2026-05-07 20:02 | 36.54101 | -116.33542 | 21968 ft | 409 kts | 129° |
| 2026-05-07 20:02 | 36.52228 | -116.30892 | 21740 ft | 408 kts | 129° |
| 2026-05-07 20:02 | 36.50354 | -116.28250 | 21516 ft | 406 kts | 129° |
| 2026-05-07 20:02 | 36.48496 | -116.25634 | 21280 ft | 401 kts | 129° |
| 2026-05-07 20:03 | 36.46665 | -116.23059 | 21074 ft | 393 kts | 129° |
| 2026-05-07 20:03 | 36.44880 | -116.20552 | 20812 ft | 382 kts | 129° |
| 2026-05-07 20:03 | 36.43137 | -116.18106 | 20511 ft | 373 kts | 129° |
| 2026-05-07 20:03 | 36.41438 | -116.15723 | 20216 ft | 364 kts | 129° |
| 2026-05-07 20:04 | 36.39777 | -116.13392 | 19943 ft | 356 kts | 129° |
| 2026-05-07 20:04 | 36.38148 | -116.11108 | 19655 ft | 350 kts | 129° |
| 2026-05-07 20:04 | 36.36546 | -116.08862 | 19382 ft | 346 kts | 129° |
| 2026-05-07 20:04 | 36.34958 | -116.06635 | 19127 ft | 344 kts | 129° |
| 2026-05-07 20:05 | 36.33374 | -116.04416 | 18810 ft | 344 kts | 129° |
| 2026-05-07 20:05 | 36.31788 | -116.02195 | 18514 ft | 343 kts | 129° |
| 2026-05-07 20:05 | 36.30208 | -115.99984 | 18226 ft | 342 kts | 129° |
| 2026-05-07 20:05 | 36.28635 | -115.97786 | 17919 ft | 340 kts | 129° |
| 2026-05-07 20:06 | 36.27072 | -115.95605 | 17643 ft | 337 kts | 129° |
| 2026-05-07 20:06 | 36.25528 | -115.93453 | 17274 ft | 332 kts | 129° |
| 2026-05-07 20:06 | 36.24034 | -115.91262 | 16795 ft | 332 kts | 126° |
| 2026-05-07 20:06 | 36.22634 | -115.89041 | 16362 ft | 330 kts | 125° |
| 2026-05-07 20:07 | 36.21239 | -115.86790 | 15969 ft | 328 kts | 125° |
| 2026-05-07 20:07 | 36.19857 | -115.84567 | 15602 ft | 324 kts | 125° |
| 2026-05-07 20:07 | 36.18481 | -115.82370 | 15304 ft | 320 kts | 126° |
| 2026-05-07 20:07 | 36.17117 | -115.80205 | 15053 ft | 318 kts | 126° |
| 2026-05-07 20:08 | 36.15758 | -115.78058 | 14849 ft | 316 kts | 126° |
| 2026-05-07 20:08 | 36.14400 | -115.75908 | 14657 ft | 317 kts | 124° |
| 2026-05-07 20:08 | 36.13319 | -115.73553 | 14437 ft | 315 kts | 110° |
| 2026-05-07 20:08 | 36.12532 | -115.71026 | 14255 ft | 316 kts | 108° |
| 2026-05-07 20:09 | 36.11774 | -115.68468 | 14044 ft | 317 kts | 108° |
| 2026-05-07 20:09 | 36.11013 | -115.65899 | 13837 ft | 317 kts | 108° |
| 2026-05-07 20:09 | 36.10248 | -115.63348 | 13615 ft | 316 kts | 108° |
| 2026-05-07 20:10 | 36.08737 | -115.58396 | 13192 ft | 314 kts | 109° |
| 2026-05-07 20:10 | 36.07963 | -115.55880 | 12986 ft | 312 kts | 109° |
| 2026-05-07 20:10 | 36.07188 | -115.53368 | 12783 ft | 312 kts | 109° |
| 2026-05-07 20:10 | 36.06417 | -115.50867 | 12582 ft | 311 kts | 109° |
| 2026-05-07 20:11 | 36.05647 | -115.48376 | 12365 ft | 309 kts | 109° |
| 2026-05-07 20:11 | 36.04883 | -115.45905 | 12198 ft | 308 kts | 109° |
| 2026-05-07 20:11 | 36.04115 | -115.43429 | 11980 ft | 309 kts | 109° |
| 2026-05-07 20:11 | 36.03341 | -115.40937 | 11657 ft | 312 kts | 110° |
| 2026-05-07 20:12 | 36.02558 | -115.38420 | 11362 ft | 315 kts | 110° |
| 2026-05-07 20:12 | 36.01786 | -115.35887 | 11031 ft | 313 kts | 107° |
| 2026-05-07 20:12 | 36.01418 | -115.33282 | 10798 ft | 305 kts | 92° |
| 2026-05-07 20:12 | 36.01303 | -115.30688 | 10612 ft | 301 kts | 91° |
| 2026-05-07 20:13 | 36.01242 | -115.28986 | 10483 ft | 300 kts | 91° |
| 2026-05-07 20:13 | 36.01145 | -115.26406 | 10286 ft | 301 kts | 91° |
| 2026-05-07 20:13 | 36.01037 | -115.23841 | 10054 ft | 296 kts | 92° |
| 2026-05-07 20:13 | 36.00924 | -115.21336 | 9845 ft | 288 kts | 92° |
| 2026-05-07 20:14 | 36.00807 | -115.18882 | 9640 ft | 285 kts | 92° |
| 2026-05-07 20:14 | 36.00688 | -115.16473 | 9418 ft | 277 kts | 92° |
| 2026-05-07 20:14 | 36.00571 | -115.14130 | 9234 ft | 271 kts | 92° |
| 2026-05-07 20:14 | 36.00454 | -115.11837 | 9043 ft | 264 kts | 92° |
| 2026-05-07 20:15 | 36.00341 | -115.09591 | 8823 ft | 260 kts | 92° |
| 2026-05-07 20:15 | 36.00229 | -115.07387 | 8595 ft | 255 kts | 92° |
| 2026-05-07 20:15 | 36.00118 | -115.05214 | 8381 ft | 252 kts | 92° |
| 2026-05-07 20:15 | 36.00009 | -115.03066 | 8150 ft | 250 kts | 92° |
| 2026-05-07 20:16 | 35.99905 | -115.00936 | 7901 ft | 248 kts | 90° |
| 2026-05-07 20:16 | 35.99877 | -114.98796 | 7544 ft | 249 kts | 89° |
| 2026-05-07 20:16 | 35.99873 | -114.96654 | 7236 ft | 250 kts | 89° |
| 2026-05-07 20:16 | 35.99878 | -114.94534 | 6929 ft | 249 kts | 85° |
| 2026-05-07 20:17 | 36.00366 | -114.92516 | 6601 ft | 247 kts | 55° |
| 2026-05-07 20:17 | 36.01571 | -114.91004 | 6301 ft | 244 kts | 34° |
| 2026-05-07 20:17 | 36.03095 | -114.90121 | 5956 ft | 244 kts | 7° |
| 2026-05-07 20:17 | 36.04751 | -114.90335 | 5667 ft | 241 kts | 339° |
| 2026-05-07 20:18 | 36.06244 | -114.91267 | 5357 ft | 241 kts | 325° |
| 2026-05-07 20:18 | 36.07303 | -114.92837 | 5024 ft | 241 kts | 288° |
| 2026-05-07 20:18 | 36.07506 | -114.94872 | 4759 ft | 239 kts | 270° |
| 2026-05-07 20:18 | 36.07471 | -114.96900 | 4464 ft | 239 kts | 267° |
| 2026-05-07 20:19 | 36.07397 | -114.98956 | 4177 ft | 239 kts | 268° |
| 2026-05-07 20:19 | 36.07380 | -115.00990 | 3905 ft | 234 kts | 270° |
| 2026-05-07 20:19 | 36.07381 | -115.02977 | 3582 ft | 230 kts | 269° |
| 2026-05-07 20:19 | 36.07377 | -115.04918 | 3322 ft | 223 kts | 269° |
| 2026-05-07 20:20 | 36.07373 | -115.06808 | 3051 ft | 216 kts | 270° |
| 2026-05-07 20:20 | 36.07371 | -115.08619 | 2760 ft | 204 kts | 269° |
| 2026-05-07 20:20 | 36.07369 | -115.10298 | 2488 ft | 187 kts | 269° |
| 2026-05-07 20:20 | 36.07365 | -115.11789 | 2339 ft | 162 kts | 268° |
| 2026-05-07 20:21 | 36.07370 | -115.13125 | 2193 ft | 147 kts | 268° |
| 2026-05-07 20:21 | 36.07362 | -115.14232 | 2189 ft | 107 kts | 270° |
| 2026-05-07 20:21 | 36.07367 | -115.14756 | 2189 ft | 28 kts | 283° |
| 2026-05-07 20:21 | 36.07425 | -115.14957 | 2188 ft | 23 kts | 296° |
| 2026-05-07 20:22 | 36.07515 | -115.15112 | 2187 ft | 22 kts | 320° |
| 2026-05-07 20:22 | 36.07647 | -115.15202 | 2189 ft | 21 kts | 334° |
| 2026-05-07 20:22 | 36.07780 | -115.15282 | 2190 ft | 21 kts | 335° |
| 2026-05-07 20:22 | 36.07881 | -115.15337 | 2189 ft | 15 kts | 337° |
| 2026-05-07 20:23 | 36.07976 | -115.15390 | 2188 ft | 15 kts | 329° |
| 2026-05-07 20:23 | 36.08064 | -115.15447 | 2187 ft | 11 kts | 334° |
| 2026-05-07 20:23 | 36.08114 | -115.15447 | 2188 ft | 7 kts | 41° |
| 2026-05-07 20:23 | 36.08125 | -115.15390 | 2187 ft | 7 kts | 100° |
| 2026-05-07 20:24 | 36.08114 | -115.15332 | 2190 ft | 7 kts | 104° |
| 2026-05-07 20:24 | 36.08102 | -115.15275 | 2187 ft | 7 kts | 104° |
| 2026-05-07 20:24 | 36.08090 | -115.15215 | 2189 ft | 8 kts | 104° |
| 2026-05-07 20:24 | 36.08099 | -115.15146 | 2188 ft | 9 kts | 56° |
| 2026-05-07 20:25 | 36.08136 | -115.15085 | 2189 ft | 9 kts | 57° |
| 2026-05-07 20:25 | 36.08177 | -115.15032 | 2187 ft | 8 kts | 45° |
| 2026-05-07 20:25 | 36.08217 | -115.14982 | 2187 ft | 8 kts | 46° |
| 2026-05-07 20:25 | 36.08261 | -115.14950 | 2188 ft | 8 kts | 339° |
| 2026-05-07 20:26 | 36.08289 | -115.15002 | 2189 ft | 8 kts | 265° |
| 2026-05-07 20:26 | 36.08285 | -115.15029 | 2187 ft | 1 kts | 260° |
| 2026-05-07 20:26 | 36.08285 | -115.15032 | 2187 ft | 0 kts | 260° |